sensor_id;sensor_type;location;lat;lon;timestamp;temperature;humidity
49224;DHT22;35050;51.316;5.994;2023-06-14T00:00:39;22.60;73.90
49224;DHT22;35050;51.316;5.994;2023-06-14T00:03:09;22.50;73.20
49224;DHT22;35050;51.316;5.994;2023-06-14T00:05:38;22.50;73.50
49224;DHT22;35050;51.316;5.994;2023-06-14T00:08:09;22.50;73.40
49224;DHT22;35050;51.316;5.994;2023-06-14T00:10:35;22.40;73.10
49224;DHT22;35050;51.316;5.994;2023-06-14T00:13:02;22.50;73.30
49224;DHT22;35050;51.316;5.994;2023-06-14T00:15:28;22.40;74.00
49224;DHT22;35050;51.316;5.994;2023-06-14T00:17:54;22.30;74.00
49224;DHT22;35050;51.316;5.994;2023-06-14T00:20:20;22.40;74.20
49224;DHT22;35050;51.316;5.994;2023-06-14T00:22:46;22.40;74.30
49224;DHT22;35050;51.316;5.994;2023-06-14T00:25:13;22.20;74.40
49224;DHT22;35050;51.316;5.994;2023-06-14T00:27:39;22.30;74.40
49224;DHT22;35050;51.316;5.994;2023-06-14T00:30:05;22.20;75.10
49224;DHT22;35050;51.316;5.994;2023-06-14T00:32:31;22.10;74.60
49224;DHT22;35050;51.316;5.994;2023-06-14T00:34:56;22.10;75.60
49224;DHT22;35050;51.316;5.994;2023-06-14T00:37:22;22.10;74.70
49224;DHT22;35050;51.316;5.994;2023-06-14T00:39:47;21.80;75.00
49224;DHT22;35050;51.316;5.994;2023-06-14T00:42:26;22.00;74.80
49224;DHT22;35050;51.316;5.994;2023-06-14T00:44:52;21.90;75.00
49224;DHT22;35050;51.316;5.994;2023-06-14T00:47:18;21.70;74.70
49224;DHT22;35050;51.316;5.994;2023-06-14T00:49:46;21.50;75.30
49224;DHT22;35050;51.316;5.994;2023-06-14T00:52:13;21.80;75.20
49224;DHT22;35050;51.316;5.994;2023-06-14T00:54:40;21.60;74.80
49224;DHT22;35050;51.316;5.994;2023-06-14T00:57:06;21.70;75.00
49224;DHT22;35050;51.316;5.994;2023-06-14T00:59:33;21.60;74.40
49224;DHT22;35050;51.316;5.994;2023-06-14T01:01:58;21.50;74.50
49224;DHT22;35050;51.316;5.994;2023-06-14T01:04:24;21.50;74.40
49224;DHT22;35050;51.316;5.994;2023-06-14T01:06:56;21.50;74.40
49224;DHT22;35050;51.316;5.994;2023-06-14T01:10:15;21.60;73.90
49224;DHT22;35050;51.316;5.994;2023-06-14T01:13:29;21.70;73.90
49224;DHT22;35050;51.316;5.994;2023-06-14T01:15:23;21.70;74.10
49224;DHT22;35050;51.316;5.994;2023-06-14T01:17:50;21.70;73.60
49224;DHT22;35050;51.316;5.994;2023-06-14T01:20:17;21.70;74.00
49224;DHT22;35050;51.316;5.994;2023-06-14T01:22:54;21.60;74.20
49224;DHT22;35050;51.316;5.994;2023-06-14T01:25:21;21.50;73.90
49224;DHT22;35050;51.316;5.994;2023-06-14T01:27:54;21.50;74.10
49224;DHT22;35050;51.316;5.994;2023-06-14T01:30:21;21.30;74.60
49224;DHT22;35050;51.316;5.994;2023-06-14T01:32:48;21.30;75.20
49224;DHT22;35050;51.316;5.994;2023-06-14T01:35:16;21.30;75.50
49224;DHT22;35050;51.316;5.994;2023-06-14T01:37:42;21.30;75.70
49224;DHT22;35050;51.316;5.994;2023-06-14T01:40:09;21.30;75.60
49224;DHT22;35050;51.316;5.994;2023-06-14T01:42:37;21.10;75.90
49224;DHT22;35050;51.316;5.994;2023-06-14T01:45:05;21.10;75.90
49224;DHT22;35050;51.316;5.994;2023-06-14T01:47:32;21.20;76.00
49224;DHT22;35050;51.316;5.994;2023-06-14T01:49:58;21.10;76.10
49224;DHT22;35050;51.316;5.994;2023-06-14T01:52:24;21.10;76.30
49224;DHT22;35050;51.316;5.994;2023-06-14T01:54:50;21.00;76.30
49224;DHT22;35050;51.316;5.994;2023-06-14T01:57:16;20.80;76.40
49224;DHT22;35050;51.316;5.994;2023-06-14T01:59:42;20.90;76.60
49224;DHT22;35050;51.316;5.994;2023-06-14T02:02:08;20.90;76.20
49224;DHT22;35050;51.316;5.994;2023-06-14T02:04:33;20.90;76.50
49224;DHT22;35050;51.316;5.994;2023-06-14T02:06:59;20.70;76.90
49224;DHT22;35050;51.316;5.994;2023-06-14T02:09:25;20.60;76.70
49224;DHT22;35050;51.316;5.994;2023-06-14T02:11:51;20.60;77.10
49224;DHT22;35050;51.316;5.994;2023-06-14T02:14:16;20.70;77.70
49224;DHT22;35050;51.316;5.994;2023-06-14T02:16:43;20.60;77.20
49224;DHT22;35050;51.316;5.994;2023-06-14T02:19:15;20.70;77.00
49224;DHT22;35050;51.316;5.994;2023-06-14T02:21:42;20.50;76.90
49224;DHT22;35050;51.316;5.994;2023-06-14T02:24:08;20.60;77.40
49224;DHT22;35050;51.316;5.994;2023-06-14T02:26:33;20.50;77.20
49224;DHT22;35050;51.316;5.994;2023-06-14T02:28:59;20.50;77.30
49224;DHT22;35050;51.316;5.994;2023-06-14T02:31:25;20.40;77.50
49224;DHT22;35050;51.316;5.994;2023-06-14T02:33:51;20.30;77.70
49224;DHT22;35050;51.316;5.994;2023-06-14T02:36:16;20.30;77.80
49224;DHT22;35050;51.316;5.994;2023-06-14T02:38:42;20.20;78.10
49224;DHT22;35050;51.316;5.994;2023-06-14T02:41:08;20.20;78.10
49224;DHT22;35050;51.316;5.994;2023-06-14T02:43:33;20.10;77.80
49224;DHT22;35050;51.316;5.994;2023-06-14T02:45:59;20.10;78.50
49224;DHT22;35050;51.316;5.994;2023-06-14T02:48:24;20.10;78.10
49224;DHT22;35050;51.316;5.994;2023-06-14T02:50:50;20.10;78.30
49224;DHT22;35050;51.316;5.994;2023-06-14T02:53:16;20.10;78.80
49224;DHT22;35050;51.316;5.994;2023-06-14T02:55:42;20.10;78.20
49224;DHT22;35050;51.316;5.994;2023-06-14T02:58:08;19.90;78.60
49224;DHT22;35050;51.316;5.994;2023-06-14T03:00:33;19.90;78.70
49224;DHT22;35050;51.316;5.994;2023-06-14T03:03:00;19.80;78.60
49224;DHT22;35050;51.316;5.994;2023-06-14T03:05:27;19.80;78.80
49224;DHT22;35050;51.316;5.994;2023-06-14T03:07:53;19.80;79.80
49224;DHT22;35050;51.316;5.994;2023-06-14T03:10:20;19.90;78.90
49224;DHT22;35050;51.316;5.994;2023-06-14T03:12:47;19.80;78.80
49224;DHT22;35050;51.316;5.994;2023-06-14T03:15:13;19.80;79.30
49224;DHT22;35050;51.316;5.994;2023-06-14T03:17:39;19.90;79.60
49224;DHT22;35050;51.316;5.994;2023-06-14T03:20:05;19.70;79.40
49224;DHT22;35050;51.316;5.994;2023-06-14T03:22:31;19.80;80.30
49224;DHT22;35050;51.316;5.994;2023-06-14T03:24:59;19.70;80.20
49224;DHT22;35050;51.316;5.994;2023-06-14T03:27:25;19.70;79.80
49224;DHT22;35050;51.316;5.994;2023-06-14T03:29:53;19.60;80.00
49224;DHT22;35050;51.316;5.994;2023-06-14T03:32:19;19.60;80.00
49224;DHT22;35050;51.316;5.994;2023-06-14T03:34:45;19.60;80.10
49224;DHT22;35050;51.316;5.994;2023-06-14T03:37:10;19.60;80.20
49224;DHT22;35050;51.316;5.994;2023-06-14T03:39:36;19.50;80.40
49224;DHT22;35050;51.316;5.994;2023-06-14T03:42:02;19.40;80.70
49224;DHT22;35050;51.316;5.994;2023-06-14T03:44:28;19.50;80.70
49224;DHT22;35050;51.316;5.994;2023-06-14T03:46:53;19.40;81.00
49224;DHT22;35050;51.316;5.994;2023-06-14T03:49:19;19.50;80.80
49224;DHT22;35050;51.316;5.994;2023-06-14T03:51:44;19.50;81.10
49224;DHT22;35050;51.316;5.994;2023-06-14T03:54:16;19.40;80.80
49224;DHT22;35050;51.316;5.994;2023-06-14T03:56:42;19.40;80.70
49224;DHT22;35050;51.316;5.994;2023-06-14T03:59:07;19.40;81.00
49224;DHT22;35050;51.316;5.994;2023-06-14T04:01:33;19.40;81.10
49224;DHT22;35050;51.316;5.994;2023-06-14T04:03:59;19.40;81.20
49224;DHT22;35050;51.316;5.994;2023-06-14T04:06:25;19.60;80.70
49224;DHT22;35050;51.316;5.994;2023-06-14T04:08:58;19.60;81.10
49224;DHT22;35050;51.316;5.994;2023-06-14T04:11:29;19.50;81.00
49224;DHT22;35050;51.316;5.994;2023-06-14T04:13:55;19.60;80.80
49224;DHT22;35050;51.316;5.994;2023-06-14T04:16:22;19.60;81.60
49224;DHT22;35050;51.316;5.994;2023-06-14T04:18:47;19.60;80.90
49224;DHT22;35050;51.316;5.994;2023-06-14T04:21:16;19.40;80.90
49224;DHT22;35050;51.316;5.994;2023-06-14T04:23:42;19.40;81.70
49224;DHT22;35050;51.316;5.994;2023-06-14T04:26:09;19.60;81.00
49224;DHT22;35050;51.316;5.994;2023-06-14T04:28:36;19.60;81.00
49224;DHT22;35050;51.316;5.994;2023-06-14T04:31:06;19.50;80.60
49224;DHT22;35050;51.316;5.994;2023-06-14T04:33:36;19.50;80.90
49224;DHT22;35050;51.316;5.994;2023-06-14T04:36:10;19.40;80.90
49224;DHT22;35050;51.316;5.994;2023-06-14T04:38:37;19.40;81.00
49224;DHT22;35050;51.316;5.994;2023-06-14T04:41:03;19.40;81.00
49224;DHT22;35050;51.316;5.994;2023-06-14T04:43:29;19.40;80.30
49224;DHT22;35050;51.316;5.994;2023-06-14T04:45:54;19.30;80.80
49224;DHT22;35050;51.316;5.994;2023-06-14T04:48:22;19.30;81.20
49224;DHT22;35050;51.316;5.994;2023-06-14T04:50:48;19.30;82.10
49224;DHT22;35050;51.316;5.994;2023-06-14T04:53:18;19.50;81.60
49224;DHT22;35050;51.316;5.994;2023-06-14T04:55:47;19.60;80.60
49224;DHT22;35050;51.316;5.994;2023-06-14T04:58:13;19.50;80.70
49224;DHT22;35050;51.316;5.994;2023-06-14T05:00:39;19.60;80.80
49224;DHT22;35050;51.316;5.994;2023-06-14T05:03:04;19.40;80.90
49224;DHT22;35050;51.316;5.994;2023-06-14T05:05:31;19.50;80.20
49224;DHT22;35050;51.316;5.994;2023-06-14T05:07:57;19.50;80.90
49224;DHT22;35050;51.316;5.994;2023-06-14T05:10:24;19.50;80.40
49224;DHT22;35050;51.316;5.994;2023-06-14T05:12:49;19.50;80.80
49224;DHT22;35050;51.316;5.994;2023-06-14T05:15:15;19.30;80.70
49224;DHT22;35050;51.316;5.994;2023-06-14T05:17:41;19.40;80.50
49224;DHT22;35050;51.316;5.994;2023-06-14T05:20:07;19.50;80.70
49224;DHT22;35050;51.316;5.994;2023-06-14T05:22:35;19.70;80.70
49224;DHT22;35050;51.316;5.994;2023-06-14T05:25:01;19.80;80.60
49224;DHT22;35050;51.316;5.994;2023-06-14T05:27:27;19.80;80.90
49224;DHT22;35050;51.316;5.994;2023-06-14T05:29:54;19.90;81.00
49224;DHT22;35050;51.316;5.994;2023-06-14T05:32:24;20.10;81.30
49224;DHT22;35050;51.316;5.994;2023-06-14T05:34:49;20.20;81.10
49224;DHT22;35050;51.316;5.994;2023-06-14T05:37:15;20.00;80.70
49224;DHT22;35050;51.316;5.994;2023-06-14T05:39:42;19.90;81.10
49224;DHT22;35050;51.316;5.994;2023-06-14T05:42:08;20.10;80.60
49224;DHT22;35050;51.316;5.994;2023-06-14T05:44:33;20.00;80.30
49224;DHT22;35050;51.316;5.994;2023-06-14T05:46:59;20.20;81.00
49224;DHT22;35050;51.316;5.994;2023-06-14T05:49:25;20.30;80.70
49224;DHT22;35050;51.316;5.994;2023-06-14T05:51:50;20.60;81.10
49224;DHT22;35050;51.316;5.994;2023-06-14T05:54:16;20.70;80.60
49224;DHT22;35050;51.316;5.994;2023-06-14T05:56:42;20.40;80.00
49224;DHT22;35050;51.316;5.994;2023-06-14T05:59:07;20.50;79.50
49224;DHT22;35050;51.316;5.994;2023-06-14T06:01:33;20.60;79.50
49224;DHT22;35050;51.316;5.994;2023-06-14T06:04:02;20.60;78.60
49224;DHT22;35050;51.316;5.994;2023-06-14T06:06:27;20.80;77.90
49224;DHT22;35050;51.316;5.994;2023-06-14T06:08:54;20.70;78.30
49224;DHT22;35050;51.316;5.994;2023-06-14T06:11:19;20.80;78.00
49224;DHT22;35050;51.316;5.994;2023-06-14T06:13:45;20.70;77.60
49224;DHT22;35050;51.316;5.994;2023-06-14T06:16:11;21.00;78.10
49224;DHT22;35050;51.316;5.994;2023-06-14T06:18:37;21.00;77.30
49224;DHT22;35050;51.316;5.994;2023-06-14T06:21:04;21.10;76.70
49224;DHT22;35050;51.316;5.994;2023-06-14T06:23:29;21.20;76.70
49224;DHT22;35050;51.316;5.994;2023-06-14T06:25:55;21.20;77.30
49224;DHT22;35050;51.316;5.994;2023-06-14T06:28:21;21.60;77.90
49224;DHT22;35050;51.316;5.994;2023-06-14T06:30:46;21.70;76.40
49224;DHT22;35050;51.316;5.994;2023-06-14T06:33:12;21.60;76.40
49224;DHT22;35050;51.316;5.994;2023-06-14T06:35:39;21.80;77.00
49224;DHT22;35050;51.316;5.994;2023-06-14T06:38:05;22.00;77.00
49224;DHT22;35050;51.316;5.994;2023-06-14T06:40:30;21.90;74.80
49224;DHT22;35050;51.316;5.994;2023-06-14T06:42:56;21.90;74.80
49224;DHT22;35050;51.316;5.994;2023-06-14T06:45:22;21.90;75.10
49224;DHT22;35050;51.316;5.994;2023-06-14T06:47:48;22.10;75.80
49224;DHT22;35050;51.316;5.994;2023-06-14T06:50:15;22.10;75.20
49224;DHT22;35050;51.316;5.994;2023-06-14T06:52:41;22.20;74.60
49224;DHT22;35050;51.316;5.994;2023-06-14T06:55:07;22.30;75.00
49224;DHT22;35050;51.316;5.994;2023-06-14T06:57:34;22.60;74.90
49224;DHT22;35050;51.316;5.994;2023-06-14T06:59:59;22.60;74.40
49224;DHT22;35050;51.316;5.994;2023-06-14T07:02:25;22.70;74.00
49224;DHT22;35050;51.316;5.994;2023-06-14T07:04:51;22.90;74.10
49224;DHT22;35050;51.316;5.994;2023-06-14T07:07:17;22.70;73.60
49224;DHT22;35050;51.316;5.994;2023-06-14T07:09:43;22.70;73.50
49224;DHT22;35050;51.316;5.994;2023-06-14T07:12:09;22.80;73.10
49224;DHT22;35050;51.316;5.994;2023-06-14T07:14:37;22.90;72.60
49224;DHT22;35050;51.316;5.994;2023-06-14T07:17:02;23.10;74.10
49224;DHT22;35050;51.316;5.994;2023-06-14T07:19:28;23.00;72.70
49224;DHT22;35050;51.316;5.994;2023-06-14T07:21:54;23.20;74.10
49224;DHT22;35050;51.316;5.994;2023-06-14T07:24:19;23.20;71.40
49224;DHT22;35050;51.316;5.994;2023-06-14T07:26:46;23.20;72.80
49224;DHT22;35050;51.316;5.994;2023-06-14T07:29:14;23.20;72.10
49224;DHT22;35050;51.316;5.994;2023-06-14T07:31:39;23.20;71.50
49224;DHT22;35050;51.316;5.994;2023-06-14T07:34:05;23.40;71.70
49224;DHT22;35050;51.316;5.994;2023-06-14T07:36:30;23.40;70.30
49224;DHT22;35050;51.316;5.994;2023-06-14T07:38:56;23.40;70.40
49224;DHT22;35050;51.316;5.994;2023-06-14T07:41:22;23.40;70.30
49224;DHT22;35050;51.316;5.994;2023-06-14T07:43:47;23.70;70.90
49224;DHT22;35050;51.316;5.994;2023-06-14T07:46:13;23.70;71.00
49224;DHT22;35050;51.316;5.994;2023-06-14T07:48:39;23.60;69.80
49224;DHT22;35050;51.316;5.994;2023-06-14T07:51:05;23.60;69.40
49224;DHT22;35050;51.316;5.994;2023-06-14T07:53:31;24.00;71.00
49224;DHT22;35050;51.316;5.994;2023-06-14T07:55:57;24.10;69.30
49224;DHT22;35050;51.316;5.994;2023-06-14T07:58:23;24.00;69.70
49224;DHT22;35050;51.316;5.994;2023-06-14T08:00:48;24.20;70.40
49224;DHT22;35050;51.316;5.994;2023-06-14T08:03:15;24.60;69.30
49224;DHT22;35050;51.316;5.994;2023-06-14T08:05:41;24.80;69.50
49224;DHT22;35050;51.316;5.994;2023-06-14T08:08:06;24.80;68.60
49224;DHT22;35050;51.316;5.994;2023-06-14T08:10:32;24.90;67.20
49224;DHT22;35050;51.316;5.994;2023-06-14T08:12:58;24.90;66.70
49224;DHT22;35050;51.316;5.994;2023-06-14T08:15:23;24.90;67.00
49224;DHT22;35050;51.316;5.994;2023-06-14T08:17:49;25.00;66.00
49224;DHT22;35050;51.316;5.994;2023-06-14T08:20:15;24.90;65.40
49224;DHT22;35050;51.316;5.994;2023-06-14T08:22:42;25.10;67.20
49224;DHT22;35050;51.316;5.994;2023-06-14T08:25:08;25.50;67.70
49224;DHT22;35050;51.316;5.994;2023-06-14T08:27:34;25.50;65.40
49224;DHT22;35050;51.316;5.994;2023-06-14T08:30:00;25.80;66.10
49224;DHT22;35050;51.316;5.994;2023-06-14T08:32:25;25.80;65.90
49224;DHT22;35050;51.316;5.994;2023-06-14T08:34:51;25.60;64.40
49224;DHT22;35050;51.316;5.994;2023-06-14T08:37:16;25.80;65.30
49224;DHT22;35050;51.316;5.994;2023-06-14T08:39:42;25.80;65.40
49224;DHT22;35050;51.316;5.994;2023-06-14T08:42:09;25.80;63.80
49224;DHT22;35050;51.316;5.994;2023-06-14T08:44:36;26.10;62.50
49224;DHT22;35050;51.316;5.994;2023-06-14T08:47:02;26.00;62.70
49224;DHT22;35050;51.316;5.994;2023-06-14T08:49:29;26.10;62.20
49224;DHT22;35050;51.316;5.994;2023-06-14T08:52:00;26.20;61.90
49224;DHT22;35050;51.316;5.994;2023-06-14T08:54:29;26.00;61.40
49224;DHT22;35050;51.316;5.994;2023-06-14T08:56:59;26.10;60.60
49224;DHT22;35050;51.316;5.994;2023-06-14T08:59:26;26.10;60.70
49224;DHT22;35050;51.316;5.994;2023-06-14T09:01:52;26.30;61.00
49224;DHT22;35050;51.316;5.994;2023-06-14T09:04:23;26.50;61.30
49224;DHT22;35050;51.316;5.994;2023-06-14T09:06:49;26.70;60.60
49224;DHT22;35050;51.316;5.994;2023-06-14T09:09:21;26.80;60.40
49224;DHT22;35050;51.316;5.994;2023-06-14T09:11:51;26.60;60.00
49224;DHT22;35050;51.316;5.994;2023-06-14T09:14:19;26.60;59.00
49224;DHT22;35050;51.316;5.994;2023-06-14T09:16:44;26.70;60.00
49224;DHT22;35050;51.316;5.994;2023-06-14T09:19:23;26.80;59.70
49224;DHT22;35050;51.316;5.994;2023-06-14T09:21:50;27.00;59.50
49224;DHT22;35050;51.316;5.994;2023-06-14T09:24:18;27.10;58.90
49224;DHT22;35050;51.316;5.994;2023-06-14T09:26:47;27.20;58.90
49224;DHT22;35050;51.316;5.994;2023-06-14T09:29:12;27.20;59.40
49224;DHT22;35050;51.316;5.994;2023-06-14T09:31:38;27.20;58.70
49224;DHT22;35050;51.316;5.994;2023-06-14T09:34:05;27.30;58.50
49224;DHT22;35050;51.316;5.994;2023-06-14T09:36:32;27.10;60.50
49224;DHT22;35050;51.316;5.994;2023-06-14T09:39:01;27.30;58.20
49224;DHT22;35050;51.316;5.994;2023-06-14T09:41:34;27.70;60.10
49224;DHT22;35050;51.316;5.994;2023-06-14T09:44:01;27.30;57.20
49224;DHT22;35050;51.316;5.994;2023-06-14T09:46:27;27.60;58.80
49224;DHT22;35050;51.316;5.994;2023-06-14T09:48:55;27.00;58.40
49224;DHT22;35050;51.316;5.994;2023-06-14T09:51:22;27.40;59.20
49224;DHT22;35050;51.316;5.994;2023-06-14T09:53:49;27.70;59.60
49224;DHT22;35050;51.316;5.994;2023-06-14T09:56:39;27.90;58.20
49224;DHT22;35050;51.316;5.994;2023-06-14T09:59:06;27.70;60.00
49224;DHT22;35050;51.316;5.994;2023-06-14T10:01:35;27.80;59.80
49224;DHT22;35050;51.316;5.994;2023-06-14T10:04:06;27.70;59.00
49224;DHT22;35050;51.316;5.994;2023-06-14T10:06:37;27.90;59.00
49224;DHT22;35050;51.316;5.994;2023-06-14T10:09:07;28.10;58.50
49224;DHT22;35050;51.316;5.994;2023-06-14T10:11:35;28.20;59.20
49224;DHT22;35050;51.316;5.994;2023-06-14T10:14:03;28.30;59.50
49224;DHT22;35050;51.316;5.994;2023-06-14T10:19:18;28.50;58.50
49224;DHT22;35050;51.316;5.994;2023-06-14T10:22:08;28.10;58.40
49224;DHT22;35050;51.316;5.994;2023-06-14T10:24:42;28.60;59.00
49224;DHT22;35050;51.316;5.994;2023-06-14T10:27:09;28.80;59.20
49224;DHT22;35050;51.316;5.994;2023-06-14T10:30:04;28.30;58.30
49224;DHT22;35050;51.316;5.994;2023-06-14T10:32:32;28.40;58.30
49224;DHT22;35050;51.316;5.994;2023-06-14T10:35:00;28.40;58.80
49224;DHT22;35050;51.316;5.994;2023-06-14T10:37:27;28.70;58.40
49224;DHT22;35050;51.316;5.994;2023-06-14T10:39:52;28.90;60.10
49224;DHT22;35050;51.316;5.994;2023-06-14T10:42:21;28.90;59.80
49224;DHT22;35050;51.316;5.994;2023-06-14T10:44:57;29.30;59.70
49224;DHT22;35050;51.316;5.994;2023-06-14T10:47:32;29.40;59.10
49224;DHT22;35050;51.316;5.994;2023-06-14T10:50:07;29.60;59.00
49224;DHT22;35050;51.316;5.994;2023-06-14T10:52:43;29.10;59.60
49224;DHT22;35050;51.316;5.994;2023-06-14T10:55:14;29.60;59.70
49224;DHT22;35050;51.316;5.994;2023-06-14T11:00:20;29.80;59.90
49224;DHT22;35050;51.316;5.994;2023-06-14T11:10:59;29.10;59.20
49224;DHT22;35050;51.316;5.994;2023-06-14T11:13:28;29.60;60.30
49224;DHT22;35050;51.316;5.994;2023-06-14T11:15:54;29.20;59.60
49224;DHT22;35050;51.316;5.994;2023-06-14T11:18:22;29.50;60.30
49224;DHT22;35050;51.316;5.994;2023-06-14T11:20:52;30.10;60.30
49224;DHT22;35050;51.316;5.994;2023-06-14T11:23:18;29.90;60.50
49224;DHT22;35050;51.316;5.994;2023-06-14T11:25:49;29.50;58.60
49224;DHT22;35050;51.316;5.994;2023-06-14T11:28:14;29.50;58.30
49224;DHT22;35050;51.316;5.994;2023-06-14T11:30:40;29.70;58.60
49224;DHT22;35050;51.316;5.994;2023-06-14T11:33:09;30.30;57.50
49224;DHT22;35050;51.316;5.994;2023-06-14T11:35:36;29.80;59.00
49224;DHT22;35050;51.316;5.994;2023-06-14T11:38:02;30.20;57.20
49224;DHT22;35050;51.316;5.994;2023-06-14T11:40:27;29.70;56.20
49224;DHT22;35050;51.316;5.994;2023-06-14T11:43:01;30.00;57.20
49224;DHT22;35050;51.316;5.994;2023-06-14T11:45:27;30.30;57.30
49224;DHT22;35050;51.316;5.994;2023-06-14T11:47:54;30.10;56.50
49224;DHT22;35050;51.316;5.994;2023-06-14T11:50:22;30.60;58.00
49224;DHT22;35050;51.316;5.994;2023-06-14T11:52:58;30.80;57.20
49224;DHT22;35050;51.316;5.994;2023-06-14T11:55:38;30.40;59.10
49224;DHT22;35050;51.316;5.994;2023-06-14T11:58:04;30.70;57.10
49224;DHT22;35050;51.316;5.994;2023-06-14T12:00:30;30.00;57.10
49224;DHT22;35050;51.316;5.994;2023-06-14T12:02:57;30.30;57.10
49224;DHT22;35050;51.316;5.994;2023-06-14T12:05:23;30.50;58.20
49224;DHT22;35050;51.316;5.994;2023-06-14T12:07:50;31.20;57.80
49224;DHT22;35050;51.316;5.994;2023-06-14T12:10:16;30.50;57.40
49224;DHT22;35050;51.316;5.994;2023-06-14T12:12:42;30.60;57.10
49224;DHT22;35050;51.316;5.994;2023-06-14T12:15:09;30.50;56.80
49224;DHT22;35050;51.316;5.994;2023-06-14T12:17:37;30.30;57.80
49224;DHT22;35050;51.316;5.994;2023-06-14T12:22:36;31.00;57.70
49224;DHT22;35050;51.316;5.994;2023-06-14T12:25:03;30.80;57.70
49224;DHT22;35050;51.316;5.994;2023-06-14T12:27:28;30.70;56.80
49224;DHT22;35050;51.316;5.994;2023-06-14T12:30:03;31.20;56.70
49224;DHT22;35050;51.316;5.994;2023-06-14T12:32:30;30.90;57.30
49224;DHT22;35050;51.316;5.994;2023-06-14T12:34:55;31.40;57.10
49224;DHT22;35050;51.316;5.994;2023-06-14T12:37:21;31.10;56.20
49224;DHT22;35050;51.316;5.994;2023-06-14T12:39:47;30.80;57.80
49224;DHT22;35050;51.316;5.994;2023-06-14T12:42:12;31.10;57.00
49224;DHT22;35050;51.316;5.994;2023-06-14T12:44:39;30.90;56.00
49224;DHT22;35050;51.316;5.994;2023-06-14T12:47:07;31.50;57.00
49224;DHT22;35050;51.316;5.994;2023-06-14T12:49:33;31.20;56.10
49224;DHT22;35050;51.316;5.994;2023-06-14T12:51:58;31.40;56.40
49224;DHT22;35050;51.316;5.994;2023-06-14T12:54:24;30.70;56.60
49224;DHT22;35050;51.316;5.994;2023-06-14T12:56:51;30.90;56.10
49224;DHT22;35050;51.316;5.994;2023-06-14T12:59:18;31.00;56.90
49224;DHT22;35050;51.316;5.994;2023-06-14T13:01:44;31.60;57.10
49224;DHT22;35050;51.316;5.994;2023-06-14T13:04:10;31.60;57.20
49224;DHT22;35050;51.316;5.994;2023-06-14T13:06:36;32.00;56.90
49224;DHT22;35050;51.316;5.994;2023-06-14T13:09:02;32.10;57.40
49224;DHT22;35050;51.316;5.994;2023-06-14T13:11:29;31.10;55.90
49224;DHT22;35050;51.316;5.994;2023-06-14T13:13:55;31.70;57.30
49224;DHT22;35050;51.316;5.994;2023-06-14T13:16:20;31.30;56.90
49224;DHT22;35050;51.316;5.994;2023-06-14T13:18:46;31.70;56.00
49224;DHT22;35050;51.316;5.994;2023-06-14T13:21:11;31.20;56.00
49224;DHT22;35050;51.316;5.994;2023-06-14T13:23:37;30.60;54.90
49224;DHT22;35050;51.316;5.994;2023-06-14T13:26:03;30.90;54.50
49224;DHT22;35050;51.316;5.994;2023-06-14T13:28:28;31.30;55.70
49224;DHT22;35050;51.316;5.994;2023-06-14T13:30:54;31.50;56.00
49224;DHT22;35050;51.316;5.994;2023-06-14T13:33:21;31.40;56.10
49224;DHT22;35050;51.316;5.994;2023-06-14T13:35:46;31.70;55.30
49224;DHT22;35050;51.316;5.994;2023-06-14T13:38:14;32.10;56.00
49224;DHT22;35050;51.316;5.994;2023-06-14T13:40:40;32.40;54.40
49224;DHT22;35050;51.316;5.994;2023-06-14T13:43:06;31.90;53.90
49224;DHT22;35050;51.316;5.994;2023-06-14T13:45:32;32.10;54.60
49224;DHT22;35050;51.316;5.994;2023-06-14T13:47:57;32.10;55.30
49224;DHT22;35050;51.316;5.994;2023-06-14T13:50:23;31.90;54.80
49224;DHT22;35050;51.316;5.994;2023-06-14T13:52:49;31.70;54.50
49224;DHT22;35050;51.316;5.994;2023-06-14T13:55:14;31.50;55.40
49224;DHT22;35050;51.316;5.994;2023-06-14T13:57:40;32.00;54.20
49224;DHT22;35050;51.316;5.994;2023-06-14T14:00:06;30.90;54.30
49224;DHT22;35050;51.316;5.994;2023-06-14T14:02:32;31.00;54.80
49224;DHT22;35050;51.316;5.994;2023-06-14T14:04:57;31.60;54.90
49224;DHT22;35050;51.316;5.994;2023-06-14T14:07:23;31.20;56.10
49224;DHT22;35050;51.316;5.994;2023-06-14T14:09:49;31.70;55.00
49224;DHT22;35050;51.316;5.994;2023-06-14T14:12:15;31.70;55.00
49224;DHT22;35050;51.316;5.994;2023-06-14T14:14:41;31.80;55.30
49224;DHT22;35050;51.316;5.994;2023-06-14T14:17:06;32.20;56.00
49224;DHT22;35050;51.316;5.994;2023-06-14T14:19:32;32.00;55.30
49224;DHT22;35050;51.316;5.994;2023-06-14T14:21:58;32.10;54.70
49224;DHT22;35050;51.316;5.994;2023-06-14T14:24:24;31.90;54.20
49224;DHT22;35050;51.316;5.994;2023-06-14T14:26:50;31.90;54.50
49224;DHT22;35050;51.316;5.994;2023-06-14T14:29:19;31.90;55.20
49224;DHT22;35050;51.316;5.994;2023-06-14T14:31:45;31.90;55.10
49224;DHT22;35050;51.316;5.994;2023-06-14T14:34:11;32.20;56.00
49224;DHT22;35050;51.316;5.994;2023-06-14T14:36:37;31.70;55.40
49224;DHT22;35050;51.316;5.994;2023-06-14T14:39:06;32.20;56.70
49224;DHT22;35050;51.316;5.994;2023-06-14T14:41:32;32.30;56.30
49224;DHT22;35050;51.316;5.994;2023-06-14T14:43:58;32.40;55.10
49224;DHT22;35050;51.316;5.994;2023-06-14T14:46:26;31.80;54.10
49224;DHT22;35050;51.316;5.994;2023-06-14T14:48:52;32.30;55.50
49224;DHT22;35050;51.316;5.994;2023-06-14T14:51:17;32.20;55.10
49224;DHT22;35050;51.316;5.994;2023-06-14T14:53:43;31.80;54.40
49224;DHT22;35050;51.316;5.994;2023-06-14T14:56:09;31.20;55.10
49224;DHT22;35050;51.316;5.994;2023-06-14T14:58:34;31.80;56.10
49224;DHT22;35050;51.316;5.994;2023-06-14T15:01:00;31.50;56.20
49224;DHT22;35050;51.316;5.994;2023-06-14T15:03:25;31.60;56.50
49224;DHT22;35050;51.316;5.994;2023-06-14T15:05:51;31.30;55.40
49224;DHT22;35050;51.316;5.994;2023-06-14T15:08:17;31.40;55.60
49224;DHT22;35050;51.316;5.994;2023-06-14T15:10:42;31.70;55.30
49224;DHT22;35050;51.316;5.994;2023-06-14T15:13:08;32.20;56.00
49224;DHT22;35050;51.316;5.994;2023-06-14T15:15:35;32.10;55.50
49224;DHT22;35050;51.316;5.994;2023-06-14T15:18:01;31.70;56.00
49224;DHT22;35050;51.316;5.994;2023-06-14T15:20:27;31.50;55.70
49224;DHT22;35050;51.316;5.994;2023-06-14T15:22:53;31.20;56.00
49224;DHT22;35050;51.316;5.994;2023-06-14T15:25:25;31.50;55.10
49224;DHT22;35050;51.316;5.994;2023-06-14T15:27:51;31.40;55.90
49224;DHT22;35050;51.316;5.994;2023-06-14T15:30:16;30.90;55.50
49224;DHT22;35050;51.316;5.994;2023-06-14T15:32:42;31.30;57.20
49224;DHT22;35050;51.316;5.994;2023-06-14T15:35:08;30.70;57.60
49224;DHT22;35050;51.316;5.994;2023-06-14T15:37:33;30.90;57.00
49224;DHT22;35050;51.316;5.994;2023-06-14T15:39:59;31.50;56.60
49224;DHT22;35050;51.316;5.994;2023-06-14T15:42:25;31.50;56.80
49224;DHT22;35050;51.316;5.994;2023-06-14T15:44:51;31.50;57.20